createdAt,value
2022-12-01T00:00:51.878Z,29.40
2022-12-01T00:03:18.886Z,29.42
2022-12-01T00:05:45.861Z,29.38
2022-12-01T00:08:12.716Z,31.45
2022-12-01T00:10:39.650Z,29.67
2022-12-01T00:13:06.539Z,29.05
2022-12-01T00:15:36.193Z,33.45
2022-12-01T00:18:05.480Z,32.88
2022-12-01T00:20:35.575Z,31.90
2022-12-01T00:23:02.445Z,31.52
2022-12-01T00:25:29.558Z,32.25
2022-12-01T00:27:57.410Z,30.67
2022-12-01T00:30:24.273Z,33.67
2022-12-01T00:32:51.162Z,32.45
2022-12-01T00:35:18.119Z,34.05
2022-12-01T00:37:45.033Z,34.42
2022-12-01T00:40:12.418Z,33.17
2022-12-01T00:42:39.259Z,34.00
2022-12-01T00:45:06.589Z,33.65
2022-12-01T00:47:33.541Z,34.00
2022-12-01T00:50:00.637Z,35.17
2022-12-01T00:52:27.669Z,34.05
2022-12-01T00:54:54.575Z,33.05
2022-12-01T00:57:21.466Z,36.33
2022-12-01T00:59:49.340Z,36.40
2022-12-01T01:02:16.455Z,35.45
2022-12-01T01:04:43.437Z,36.25
2022-12-01T01:07:10.288Z,36.38
2022-12-01T01:09:37.213Z,35.88
2022-12-01T01:12:04.223Z,37.20
2022-12-01T01:14:31.107Z,33.85
2022-12-01T01:16:58.063Z,35.22
2022-12-01T01:19:25.063Z,35.58
2022-12-01T01:21:51.931Z,34.45
2022-12-01T01:24:18.871Z,35.08
2022-12-01T01:26:45.777Z,33.35
2022-12-01T01:29:12.693Z,31.75
2022-12-01T01:31:39.856Z,33.92
2022-12-01T01:34:07.183Z,34.95
2022-12-01T01:36:34.097Z,33.05
2022-12-01T01:39:01.102Z,33.63
2022-12-01T01:41:28.927Z,31.83
2022-12-01T01:43:59.595Z,31.60
2022-12-01T01:46:30.849Z,31.65
2022-12-01T01:49:02.515Z,33.75
2022-12-01T01:51:49.428Z,30.45
2022-12-01T01:54:25.140Z,30.58
2022-12-01T01:56:52.184Z,28.90
2022-12-01T01:59:24.387Z,27.33
2022-12-01T02:01:56.592Z,28.67
2022-12-01T02:04:23.919Z,29.77
2022-12-01T02:06:51.922Z,28.35
2022-12-01T02:09:18.939Z,27.55
2022-12-01T02:12:22.378Z,28.77
2022-12-01T02:15:08.101Z,28.92
2022-12-01T02:17:53.784Z,28.08
2022-12-01T02:20:42.538Z,29.23
2022-12-01T02:23:33.902Z,28.08
2022-12-01T02:26:30.885Z,28.67
2022-12-01T02:29:09.718Z,29.33
2022-12-01T02:31:59.463Z,28.33
2022-12-01T02:34:31.264Z,27.33
2022-12-01T02:37:08.896Z,28.92
2022-12-01T02:39:37.452Z,28.38
2022-12-01T02:42:07.903Z,28.25
2022-12-01T02:44:36.568Z,27.65
2022-12-01T02:47:05.500Z,27.02
2022-12-01T02:49:36.561Z,26.75
2022-12-01T02:52:04.949Z,28.83
2022-12-01T02:54:31.887Z,26.33
2022-12-01T02:56:58.779Z,29.35
2022-12-01T02:59:25.681Z,27.33
2022-12-01T03:02:15.534Z,28.10
2022-12-01T03:05:00.367Z,26.10
2022-12-01T03:07:48.998Z,28.35
2022-12-01T03:10:28.875Z,25.15
2022-12-01T03:13:08.946Z,25.70
2022-12-01T03:16:09.943Z,25.98
2022-12-01T03:18:39.967Z,25.83
2022-12-01T03:21:21.429Z,24.50
2022-12-01T03:23:53.259Z,23.45
2022-12-01T03:26:21.083Z,21.65
2022-12-01T03:28:51.520Z,22.85
2022-12-01T03:31:21.020Z,22.42
2022-12-01T03:33:50.686Z,22.63
2022-12-01T03:36:39.578Z,21.67
2022-12-01T03:39:12.734Z,23.05
2022-12-01T03:42:12.995Z,22.60
2022-12-01T03:44:52.043Z,20.83
2022-12-01T03:47:21.215Z,21.75
2022-12-01T03:49:49.422Z,19.73
2022-12-01T03:52:53.891Z,19.92
2022-12-01T03:55:28.882Z,19.80
2022-12-01T04:00:27.220Z,19.42
2022-12-01T04:02:58.740Z,19.75
2022-12-01T04:05:26.040Z,19.88
2022-12-01T04:07:53.397Z,19.17
2022-12-01T04:10:20.430Z,19.98
2022-12-01T04:12:47.454Z,19.27
2022-12-01T04:15:14.569Z,18.00
2022-12-01T04:17:45.174Z,18.70
2022-12-01T04:20:13.692Z,18.10
2022-12-01T04:22:40.575Z,17.92
2022-12-01T04:25:07.869Z,18.23
2022-12-01T04:27:34.863Z,17.92
2022-12-01T04:30:01.789Z,17.80
2022-12-01T04:32:28.744Z,16.63
2022-12-01T04:34:55.648Z,18.05
2022-12-01T04:37:22.504Z,17.80
2022-12-01T04:39:49.694Z,17.85
2022-12-01T04:42:16.815Z,18.02
2022-12-01T04:44:43.816Z,18.50
2022-12-01T04:47:10.722Z,18.77
2022-12-01T04:49:37.671Z,18.02
2022-12-01T04:52:05.069Z,20.55
2022-12-01T04:54:32.120Z,17.48
2022-12-01T04:56:59.391Z,18.50
2022-12-01T04:59:26.620Z,16.23
2022-12-01T05:01:53.820Z,16.40
2022-12-01T05:04:20.988Z,16.30
2022-12-01T05:06:48.099Z,16.60
2022-12-01T05:09:17.395Z,17.85
2022-12-01T05:11:44.971Z,16.88
2022-12-01T05:14:11.925Z,15.02
2022-12-01T05:16:39.171Z,17.13
2022-12-01T05:19:24.917Z,18.13
2022-12-01T05:21:52.117Z,16.55
2022-12-01T05:24:19.789Z,19.73
2022-12-01T05:26:49.638Z,19.70
2022-12-01T05:29:16.859Z,14.02
2022-12-01T05:31:45.365Z,15.80
2022-12-01T05:34:12.514Z,19.73
2022-12-01T05:36:39.524Z,18.63
2022-12-01T05:39:06.605Z,18.88
2022-12-01T05:41:33.709Z,15.90
2022-12-01T05:44:00.970Z,14.85
2022-12-01T05:46:28.080Z,15.63
2022-12-01T05:48:55.159Z,16.85
2022-12-01T05:51:22.150Z,18.10
2022-12-01T05:53:49.179Z,21.30
2022-12-01T05:56:16.244Z,17.02
2022-12-01T05:58:43.512Z,15.35
2022-12-01T06:01:10.976Z,16.67
2022-12-01T06:03:38.067Z,17.23
2022-12-01T06:06:05.301Z,15.13
2022-12-01T06:08:32.366Z,13.65
2022-12-01T06:10:59.354Z,17.17
2022-12-01T06:13:26.312Z,13.98
2022-12-01T06:16:00.309Z,15.77
2022-12-01T06:18:27.708Z,16.50
2022-12-01T06:20:54.781Z,15.80
2022-12-01T06:23:24.307Z,15.18
2022-12-01T06:25:54.740Z,14.25
2022-12-01T06:28:21.859Z,15.63
2022-12-01T06:30:48.877Z,14.50
2022-12-01T06:33:16.015Z,15.60
2022-12-01T06:35:43.205Z,16.63
2022-12-01T06:38:10.159Z,16.75
2022-12-01T06:40:37.269Z,18.15
2022-12-01T06:43:04.347Z,15.40
2022-12-01T06:45:31.570Z,18.27
2022-12-01T06:47:58.937Z,18.10
2022-12-01T06:50:26.202Z,16.45
2022-12-01T06:52:53.893Z,17.70
2022-12-01T06:55:20.979Z,21.83
2022-12-01T06:57:48.274Z,18.38
2022-12-01T07:00:16.303Z,14.82
2022-12-01T07:02:43.691Z,18.63
2022-12-01T07:05:10.769Z,21.48
2022-12-01T07:07:38.908Z,20.38
2022-12-01T07:10:06.615Z,19.85
2022-12-01T07:12:33.744Z,16.17
2022-12-01T07:15:02.028Z,17.05
2022-12-01T07:17:29.835Z,19.02
2022-12-01T07:19:57.317Z,19.05
2022-12-01T07:22:29.479Z,30.02
2022-12-01T07:24:58.077Z,17.47
2022-12-01T07:27:25.007Z,16.13
2022-12-01T07:29:52.060Z,20.35
2022-12-01T07:32:19.690Z,17.15
2022-12-01T07:34:46.627Z,17.55
2022-12-01T07:37:13.536Z,15.85
2022-12-01T07:39:40.602Z,19.48
2022-12-01T07:42:08.565Z,13.18
2022-12-01T07:44:35.524Z,13.68
2022-12-01T07:47:02.489Z,14.02
2022-12-01T07:49:29.496Z,13.27
2022-12-01T07:51:56.408Z,13.35
2022-12-01T07:54:23.477Z,12.05
2022-12-01T07:56:50.443Z,12.85
2022-12-01T07:59:17.340Z,11.88
2022-12-01T08:01:46.081Z,10.88
2022-12-01T08:04:13.118Z,11.18
2022-12-01T08:06:40.062Z,13.63
2022-12-01T08:09:07.040Z,12.40
2022-12-01T08:11:33.997Z,11.90
2022-12-01T08:14:00.936Z,12.70
2022-12-01T08:16:27.995Z,10.32
2022-12-01T08:18:54.990Z,12.23
2022-12-01T08:21:23.001Z,11.80
2022-12-01T08:23:55.855Z,10.32
2022-12-01T08:26:23.540Z,11.30
2022-12-01T08:28:50.542Z,11.90
2022-12-01T08:31:20.117Z,10.43
2022-12-01T08:33:47.612Z,10.48
2022-12-01T08:36:15.398Z,10.68
2022-12-01T08:38:45.867Z,11.50
2022-12-01T08:41:13.287Z,12.15
2022-12-01T08:43:57.077Z,9.50
2022-12-01T08:46:27.008Z,10.60
2022-12-01T08:48:55.199Z,10.73
2022-12-01T08:51:22.234Z,9.95
2022-12-01T08:53:49.713Z,9.55
2022-12-01T08:56:20.450Z,11.95
2022-12-01T08:58:47.548Z,12.38
2022-12-01T09:01:15.584Z,10.68
2022-12-01T09:03:42.762Z,10.80
2022-12-01T09:06:22.994Z,10.98
2022-12-01T09:08:49.986Z,10.05
2022-12-01T09:11:18.506Z,10.93
2022-12-01T09:13:51.315Z,9.55
2022-12-01T09:16:21.418Z,10.25
2022-12-01T09:18:48.696Z,10.90
2022-12-01T09:21:19.327Z,12.65
2022-12-01T09:23:46.478Z,12.10
2022-12-01T09:26:14.104Z,12.52
2022-12-01T09:28:41.211Z,11.90
2022-12-01T09:31:09.846Z,11.43
2022-12-01T09:33:37.021Z,11.23
2022-12-01T09:36:04.723Z,13.10
2022-12-01T09:38:32.809Z,11.52
2022-12-01T09:41:00.801Z,11.25
2022-12-01T09:43:33.251Z,11.63
2022-12-01T09:46:02.482Z,11.65
2022-12-01T09:48:31.233Z,13.48
2022-12-01T09:50:58.246Z,13.13
2022-12-01T09:53:26.771Z,10.15
2022-12-01T09:55:55.131Z,11.27
2022-12-01T09:58:27.350Z,11.60
2022-12-01T10:00:54.483Z,12.48
2022-12-01T10:03:45.722Z,12.25
2022-12-01T10:06:32.100Z,11.75
2022-12-01T10:09:25.748Z,18.77
2022-12-01T10:11:55.281Z,16.30
2022-12-01T10:14:22.558Z,13.85
2022-12-01T10:16:58.540Z,10.52
2022-12-01T10:19:33.128Z,12.48
2022-12-01T10:22:06.258Z,12.50
2022-12-01T10:24:53.878Z,12.35
2022-12-01T10:27:52.960Z,13.20
2022-12-01T10:30:21.307Z,13.90
2022-12-01T10:32:51.994Z,14.45
2022-12-01T10:35:24.659Z,17.20
2022-12-01T10:38:00.813Z,15.45
2022-12-01T10:40:27.990Z,12.95
2022-12-01T10:42:55.123Z,16.77
2022-12-01T10:45:26.122Z,12.52
2022-12-01T10:48:20.056Z,11.48
2022-12-01T10:50:50.196Z,14.32
2022-12-01T10:53:23.086Z,10.88
2022-12-01T10:56:11.891Z,11.45
2022-12-01T10:58:58.906Z,12.70
2022-12-01T11:01:32.155Z,10.65
2022-12-01T11:04:31.551Z,11.30
2022-12-01T11:06:58.725Z,11.63
2022-12-01T11:09:29.720Z,10.90
2022-12-01T11:12:03.712Z,9.68
2022-12-01T11:14:36.591Z,11.48
2022-12-01T11:17:25.208Z,11.10
2022-12-01T11:19:52.691Z,12.43
2022-12-01T11:22:27.500Z,20.85
2022-12-01T11:24:54.376Z,12.63
2022-12-01T11:27:45.310Z,14.15
2022-12-01T11:30:41.816Z,13.90
2022-12-01T11:33:10.612Z,13.43
2022-12-01T11:35:40.110Z,12.13
2022-12-01T11:38:28.678Z,11.80
2022-12-01T11:40:57.867Z,11.52
2022-12-01T11:43:36.772Z,13.43
2022-12-01T11:46:08.195Z,12.38
2022-12-01T11:48:36.324Z,14.32
2022-12-01T11:51:27.184Z,11.07
2022-12-01T11:54:21.716Z,11.05
2022-12-01T11:57:17.418Z,9.68
2022-12-01T11:59:38.923Z,10.07
2022-12-01T12:02:09.260Z,10.65
2022-12-01T12:05:00.682Z,10.23
2022-12-01T12:07:53.498Z,10.73
2022-12-01T12:10:29.349Z,10.02
2022-12-01T12:13:08.187Z,10.88
2022-12-01T12:15:56.193Z,11.63
2022-12-01T12:18:51.081Z,10.35
2022-12-01T12:21:17.947Z,10.18
2022-12-01T12:23:50.850Z,9.60
2022-12-01T12:26:30.005Z,11.05
2022-12-01T12:29:27.036Z,10.93
2022-12-01T12:32:06.863Z,11.70
2022-12-01T12:34:58.257Z,10.23
2022-12-01T12:37:31.045Z,10.10
2022-12-01T12:40:12.995Z,10.70
2022-12-01T12:43:07.437Z,10.43
2022-12-01T12:45:54.666Z,13.40
2022-12-01T12:51:43.506Z,10.82
2022-12-01T12:54:12.959Z,11.18
2022-12-01T12:56:41.637Z,10.23
2022-12-01T12:59:31.936Z,13.50
2022-12-01T13:02:27.306Z,15.07
2022-12-01T13:05:03.129Z,12.10
2022-12-01T13:07:48.669Z,11.38
2022-12-01T13:10:26.794Z,13.20
2022-12-01T13:13:00.485Z,12.70
2022-12-01T13:15:27.524Z,11.20
2022-12-01T13:17:58.921Z,12.02
2022-12-01T13:20:27.778Z,10.93
2022-12-01T13:22:55.359Z,12.10
2022-12-01T13:25:32.818Z,12.25
2022-12-01T13:28:00.262Z,11.35
2022-12-01T13:30:27.200Z,11.00
2022-12-01T13:33:04.832Z,15.50
2022-12-01T13:35:38.324Z,13.43
2022-12-01T13:38:30.346Z,14.68
2022-12-01T13:41:18.723Z,13.30
2022-12-01T13:43:54.847Z,17.33
2022-12-01T13:46:32.298Z,12.48
2022-12-01T13:49:03.442Z,13.20
2022-12-01T13:52:16.117Z,12.90
2022-12-01T13:55:07.949Z,12.52
2022-12-01T13:57:38.622Z,12.48
2022-12-01T14:00:11.599Z,11.15
2022-12-01T14:02:41.799Z,11.93
2022-12-01T14:05:39.855Z,11.85
2022-12-01T14:08:25.619Z,12.07
2022-12-01T14:11:00.939Z,16.42
2022-12-01T14:13:28.044Z,16.08
2022-12-01T14:15:59.765Z,14.07
2022-12-01T14:18:33.187Z,14.02
2022-12-01T14:21:01.009Z,13.18
2022-12-01T14:23:30.657Z,11.48
2022-12-01T14:26:18.628Z,12.65
2022-12-01T14:29:00.914Z,11.25
2022-12-01T14:31:33.938Z,14.70
2022-12-01T14:34:14.436Z,12.88
2022-12-01T14:37:03.889Z,15.15
2022-12-01T14:39:45.487Z,15.82
2022-12-01T14:42:45.803Z,13.60
2022-12-01T14:45:15.277Z,15.20
2022-12-01T14:47:49.646Z,14.00
2022-12-01T14:50:30.388Z,14.43
2022-12-01T14:53:13.975Z,13.07
2022-12-01T14:55:43.023Z,12.95
2022-12-01T14:58:21.893Z,12.65
2022-12-01T15:01:03.072Z,15.90
2022-12-01T15:03:34.176Z,12.48
2022-12-01T15:06:01.384Z,14.32
2022-12-01T15:09:03.933Z,12.38
2022-12-01T15:11:25.992Z,12.10
2022-12-01T15:13:56.128Z,12.88
2022-12-01T15:16:25.466Z,13.07
2022-12-01T15:18:52.714Z,14.90
2022-12-01T15:21:27.641Z,14.98
2022-12-01T15:24:05.652Z,13.18
2022-12-01T15:26:52.091Z,14.35
2022-12-01T15:29:29.840Z,13.20
2022-12-01T15:32:01.661Z,12.90
2022-12-01T15:34:30.684Z,15.70
2022-12-01T15:36:58.028Z,13.63
2022-12-01T15:39:37.737Z,14.18
2022-12-01T15:42:04.802Z,15.75
2022-12-01T15:44:36.023Z,15.18
2022-12-01T15:47:36.145Z,15.07
2022-12-01T15:50:04.182Z,15.98
2022-12-01T15:52:31.297Z,14.02
2022-12-01T15:55:01.342Z,15.30
2022-12-01T15:57:28.304Z,15.88
2022-12-01T15:59:56.482Z,16.67
2022-12-01T16:02:30.374Z,16.23
2022-12-01T16:05:01.698Z,18.60
2022-12-01T16:08:10.997Z,16.17
2022-12-01T16:10:36.423Z,16.27
2022-12-01T16:13:37.576Z,16.80
2022-12-01T16:16:39.452Z,17.02
2022-12-01T16:19:09.311Z,17.85
2022-12-01T16:22:10.190Z,17.75
2022-12-01T16:24:56.537Z,16.42
2022-12-01T16:27:28.013Z,17.30
2022-12-01T16:30:02.708Z,20.67
2022-12-01T16:32:36.308Z,18.55
2022-12-01T16:35:04.818Z,17.25
2022-12-01T16:37:31.693Z,18.63
2022-12-01T16:39:58.824Z,18.45
2022-12-01T16:42:25.769Z,18.83
2022-12-01T16:44:53.107Z,18.73
2022-12-01T16:47:24.844Z,20.88
2022-12-01T16:49:52.250Z,19.63
2022-12-01T16:52:43.557Z,20.65
2022-12-01T16:55:31.467Z,21.20
2022-12-01T16:57:58.405Z,18.75
2022-12-01T17:00:25.658Z,20.25
2022-12-01T17:02:52.945Z,21.42
2022-12-01T17:05:19.920Z,19.00
2022-12-01T17:07:46.852Z,19.48
2022-12-01T17:10:13.916Z,20.63
2022-12-01T17:12:40.994Z,18.88
2022-12-01T17:15:08.378Z,19.92
2022-12-01T17:17:35.458Z,18.70
2022-12-01T17:20:03.176Z,20.08
2022-12-01T17:22:30.410Z,20.65
2022-12-01T17:24:57.584Z,19.50
2022-12-01T17:27:25.791Z,20.42
2022-12-01T17:29:52.887Z,22.02
2022-12-01T17:32:19.800Z,21.15
2022-12-01T17:34:46.675Z,20.85
2022-12-01T17:37:17.646Z,20.75
2022-12-01T17:39:47.586Z,19.13
2022-12-01T17:42:14.426Z,21.33
2022-12-01T17:44:41.297Z,20.52
2022-12-01T17:47:08.196Z,19.65
2022-12-01T17:49:36.445Z,21.30
2022-12-01T17:52:04.674Z,20.55
2022-12-01T17:54:31.675Z,20.88
2022-12-01T17:56:58.722Z,20.48
2022-12-01T17:59:25.700Z,21.77
2022-12-01T18:01:52.813Z,19.98
2022-12-01T18:04:19.682Z,20.35
2022-12-01T18:06:50.787Z,22.65
2022-12-01T18:09:20.885Z,21.75
2022-12-01T18:11:47.795Z,21.35
2022-12-01T18:14:17.809Z,21.35
2022-12-01T18:16:44.845Z,20.63
2022-12-01T18:19:11.809Z,19.73
2022-12-01T18:21:38.722Z,21.58
2022-12-01T18:24:06.306Z,20.48
2022-12-01T18:26:33.471Z,19.23
2022-12-01T18:29:02.523Z,19.83
2022-12-01T18:31:29.754Z,20.67
2022-12-01T18:34:02.577Z,23.17
2022-12-01T18:36:30.030Z,22.08
2022-12-01T18:38:57.761Z,22.08
2022-12-01T18:41:24.687Z,21.92
2022-12-01T18:43:51.619Z,22.67
2022-12-01T18:46:19.145Z,22.30
2022-12-01T18:48:47.163Z,21.65
2022-12-01T18:51:14.167Z,22.90
2022-12-01T18:53:41.086Z,21.88
2022-12-01T18:56:11.609Z,21.98
2022-12-01T18:58:39.272Z,21.08
2022-12-01T19:01:25.892Z,21.10
2022-12-01T19:03:54.775Z,23.88
2022-12-01T19:06:21.712Z,21.73
2022-12-01T19:08:48.700Z,23.17
2022-12-01T19:11:15.653Z,21.80
2022-12-01T19:13:42.504Z,23.00
2022-12-01T19:16:12.128Z,22.08
2022-12-01T19:18:39.375Z,23.05
2022-12-01T19:21:07.242Z,21.48
2022-12-01T19:23:34.459Z,23.55
2022-12-01T19:26:08.312Z,20.52
2022-12-01T19:28:35.575Z,23.07
2022-12-01T19:31:10.081Z,21.30
2022-12-01T19:33:37.205Z,21.17
2022-12-01T19:36:15.053Z,21.25
2022-12-01T19:38:42.176Z,20.65
2022-12-01T19:41:09.334Z,19.85
2022-12-01T19:43:36.583Z,22.98
2022-12-01T19:46:14.967Z,21.30
2022-12-01T19:48:42.460Z,20.88
2022-12-01T19:51:19.142Z,21.17
2022-12-01T19:53:46.342Z,21.38
2022-12-01T19:56:13.256Z,19.80
2022-12-01T19:58:40.286Z,18.58
2022-12-01T20:01:09.358Z,19.88
2022-12-01T20:03:36.439Z,20.77
2022-12-01T20:06:23.421Z,20.38
2022-12-01T20:08:50.590Z,19.50
2022-12-01T20:11:17.676Z,18.00
2022-12-01T20:13:45.325Z,19.40
2022-12-01T20:16:21.649Z,20.17
2022-12-01T20:18:48.741Z,18.23
2022-12-01T20:21:21.145Z,18.30
2022-12-01T20:23:54.395Z,20.25
2022-12-01T20:26:24.911Z,22.15
2022-12-01T20:28:55.041Z,21.02
2022-12-01T20:31:24.568Z,20.58
2022-12-01T20:33:52.654Z,20.30
2022-12-01T20:36:19.679Z,21.17
2022-12-01T20:38:46.706Z,20.38
2022-12-01T20:41:13.816Z,23.42
2022-12-01T20:43:40.905Z,22.73
2022-12-01T20:46:07.959Z,21.88
2022-12-01T20:48:35.215Z,22.02
2022-12-01T20:51:03.069Z,21.60
2022-12-01T20:53:30.295Z,22.00
2022-12-01T20:55:57.293Z,22.05
2022-12-01T20:58:24.206Z,21.35
2022-12-01T21:00:51.147Z,20.70
2022-12-01T21:03:18.036Z,19.73
2022-12-01T21:05:44.921Z,18.85
2022-12-01T21:08:12.901Z,18.67
2022-12-01T21:10:41.415Z,18.98
2022-12-01T21:13:35.695Z,20.75
2022-12-01T21:16:06.982Z,19.42
2022-12-01T21:18:55.764Z,22.77
2022-12-01T21:21:29.982Z,19.73
2022-12-01T21:24:13.731Z,20.33
2022-12-01T21:26:42.286Z,19.30
2022-12-01T21:29:28.896Z,19.58
2022-12-01T21:31:58.834Z,19.55
2022-12-01T21:34:27.096Z,21.92
2022-12-01T21:37:00.095Z,18.98
2022-12-01T21:39:28.426Z,18.95
2022-12-01T21:41:56.639Z,19.15
2022-12-01T21:44:25.431Z,19.42
2022-12-01T21:46:55.444Z,20.60
2022-12-01T21:49:35.588Z,18.92
2022-12-01T21:52:03.576Z,20.40
2022-12-01T21:54:30.546Z,19.38
2022-12-01T21:56:57.696Z,18.17
2022-12-01T21:59:24.730Z,19.17
2022-12-01T22:01:55.555Z,21.27
2022-12-01T22:04:29.577Z,20.50
2022-12-01T22:06:57.112Z,20.67
2022-12-01T22:09:27.581Z,20.25
2022-12-01T22:12:37.165Z,19.60
2022-12-01T22:15:04.389Z,20.95
2022-12-01T22:17:31.237Z,19.42
2022-12-01T22:20:00.557Z,19.15
2022-12-01T22:22:28.876Z,20.33
2022-12-01T22:25:07.217Z,19.88
2022-12-01T22:27:40.132Z,21.15
2022-12-01T22:30:07.415Z,19.02
2022-12-01T22:32:43.107Z,21.00
2022-12-01T22:35:26.167Z,19.05
2022-12-01T22:38:11.116Z,20.23
2022-12-01T22:40:39.193Z,19.05
2022-12-01T22:43:19.678Z,19.75
2022-12-01T22:46:07.709Z,20.50
2022-12-01T22:48:44.613Z,20.15
2022-12-01T22:51:14.334Z,21.13
2022-12-01T22:53:41.640Z,21.70
2022-12-01T22:56:26.656Z,20.27
2022-12-01T22:58:53.651Z,20.00
2022-12-01T23:01:30.065Z,20.88
2022-12-01T23:04:26.403Z,21.58
2022-12-01T23:06:57.643Z,22.80
2022-12-01T23:09:28.326Z,22.90
2022-12-01T23:12:01.923Z,20.90
2022-12-01T23:14:29.152Z,22.23
2022-12-01T23:17:07.380Z,22.05
2022-12-01T23:19:34.640Z,22.70
2022-12-01T23:22:01.597Z,22.50
2022-12-01T23:24:33.464Z,21.15
2022-12-01T23:27:00.706Z,21.48
2022-12-01T23:29:27.599Z,21.52
2022-12-01T23:31:54.509Z,21.45
2022-12-01T23:34:21.461Z,22.45
2022-12-01T23:36:48.967Z,22.08
2022-12-01T23:39:16.425Z,23.00
2022-12-01T23:41:47.630Z,22.30
2022-12-01T23:44:21.183Z,24.33
2022-12-01T23:46:49.248Z,22.80
2022-12-01T23:49:18.972Z,23.83
2022-12-01T23:51:48.053Z,23.45
2022-12-01T23:54:22.096Z,21.48
2022-12-01T23:56:55.031Z,20.10
2022-12-01T23:59:22.092Z,21.38
